createdAt,value
2018-05-13T00:00:36.087Z,11.50
2018-05-13T00:01:36.081Z,12.00
2018-05-13T00:02:36.092Z,11.90
2018-05-13T00:03:36.084Z,11.90
2018-05-13T00:04:36.079Z,12.20
2018-05-13T00:05:36.078Z,13.20
2018-05-13T00:06:36.081Z,11.70
2018-05-13T00:07:36.080Z,12.50
2018-05-13T00:08:36.080Z,11.50
2018-05-13T00:09:36.079Z,12.10
2018-05-13T00:10:36.074Z,12.10
2018-05-13T00:11:36.072Z,11.60
2018-05-13T00:12:36.073Z,12.50
2018-05-13T00:13:36.071Z,12.30
2018-05-13T00:14:36.077Z,11.60
2018-05-13T00:15:36.072Z,12.50
2018-05-13T00:16:36.073Z,11.90
2018-05-13T00:17:36.072Z,13.10
2018-05-13T00:18:36.065Z,11.90
2018-05-13T00:19:36.064Z,12.80
2018-05-13T00:20:36.069Z,13.10
2018-05-13T00:21:36.073Z,12.50
2018-05-13T00:22:36.065Z,12.40
2018-05-13T00:23:36.060Z,12.20
2018-05-13T00:24:36.058Z,12.30
2018-05-13T00:25:36.056Z,13.40
2018-05-13T00:26:36.059Z,12.00
2018-05-13T00:27:36.058Z,12.50
2018-05-13T00:28:36.057Z,11.80
2018-05-13T00:29:36.057Z,12.80
2018-05-13T00:30:36.055Z,12.00
2018-05-13T00:31:36.050Z,11.70
2018-05-13T00:32:36.052Z,12.30
2018-05-13T00:33:36.047Z,12.10
2018-05-13T00:34:36.049Z,12.40
2018-05-13T00:35:36.049Z,11.40
2018-05-13T00:36:36.042Z,11.30
2018-05-13T00:37:36.041Z,11.60
2018-05-13T00:38:36.048Z,11.60
2018-05-13T00:39:36.042Z,11.30
2018-05-13T00:40:36.042Z,11.90
2018-05-13T00:41:36.039Z,12.00
2018-05-13T00:42:36.034Z,11.80
2018-05-13T00:43:36.036Z,12.00
2018-05-13T00:44:36.031Z,11.30
2018-05-13T00:45:36.030Z,11.30
2018-05-13T00:46:36.032Z,11.70
2018-05-13T00:47:36.031Z,12.20
2018-05-13T00:48:36.031Z,11.30
2018-05-13T00:49:36.029Z,11.40
2018-05-13T00:50:36.049Z,11.00
2018-05-13T00:51:36.023Z,11.90
2018-05-13T00:52:36.025Z,12.40
2018-05-13T00:53:36.023Z,11.90
2018-05-13T00:54:36.016Z,11.40
2018-05-13T00:55:36.016Z,11.30
2018-05-13T00:56:36.013Z,11.00
2018-05-13T00:57:36.012Z,12.30
2018-05-13T00:58:36.014Z,11.80
2018-05-13T00:59:36.013Z,11.70
2018-05-13T01:00:36.012Z,11.20
2018-05-13T01:01:36.009Z,11.30
2018-05-13T01:02:36.003Z,10.90
2018-05-13T01:03:36.005Z,11.40
2018-05-13T01:04:36.011Z,11.40
2018-05-13T01:05:36.001Z,11.90
2018-05-13T01:06:36.004Z,10.80
2018-05-13T01:07:36.007Z,10.80
2018-05-13T01:08:35.995Z,11.40
2018-05-13T01:09:35.992Z,10.70
2018-05-13T01:10:35.999Z,11.30
2018-05-13T01:11:35.994Z,11.00
2018-05-13T01:12:35.992Z,11.90
2018-05-13T01:13:35.992Z,11.00
2018-05-13T01:14:35.984Z,10.90
2018-05-13T01:15:35.983Z,10.70
2018-05-13T01:16:35.983Z,11.20
2018-05-13T01:17:35.980Z,10.90
2018-05-13T01:18:35.996Z,10.80
2018-05-13T01:19:35.982Z,10.80
2018-05-13T01:20:35.980Z,10.70
2018-05-13T01:21:35.978Z,11.80
2018-05-13T01:22:35.972Z,12.30
2018-05-13T01:23:35.971Z,11.60
2018-05-13T01:24:35.975Z,11.20
2018-05-13T01:25:35.977Z,10.50
2018-05-13T01:26:35.969Z,11.00
2018-05-13T01:27:35.965Z,10.80
2018-05-13T01:28:35.964Z,11.80
2018-05-13T01:29:35.962Z,11.30
2018-05-13T01:30:35.965Z,10.50
2018-05-13T01:31:35.963Z,11.60
2018-05-13T01:32:35.963Z,11.20
2018-05-13T01:33:35.965Z,10.60
2018-05-13T01:34:35.970Z,11.80
2018-05-13T01:35:35.953Z,11.40
2018-05-13T01:36:35.951Z,11.00
2018-05-13T01:37:35.948Z,11.10
2018-05-13T01:38:35.952Z,10.70
2018-05-13T01:39:35.950Z,12.00
2018-05-13T01:40:35.945Z,10.90
2018-05-13T01:41:35.941Z,11.00
2018-05-13T01:42:35.948Z,11.90
2018-05-13T01:43:35.943Z,11.70
2018-05-13T01:44:35.942Z,10.80
2018-05-13T01:45:35.944Z,10.90
2018-05-13T01:46:35.933Z,12.00
2018-05-13T01:47:35.934Z,11.60
2018-05-13T01:48:35.931Z,10.80
2018-05-13T01:49:35.932Z,11.00
2018-05-13T01:50:35.933Z,11.30
2018-05-13T01:51:35.932Z,11.70
2018-05-13T01:52:35.932Z,12.90
2018-05-13T01:53:35.926Z,11.30
2018-05-13T01:54:35.924Z,13.20
2018-05-13T01:55:35.919Z,11.70
2018-05-13T01:56:35.922Z,11.60
2018-05-13T01:57:35.919Z,11.60
2018-05-13T01:58:35.914Z,11.70
2018-05-13T01:59:35.913Z,11.60
2018-05-13T02:00:35.914Z,11.20
2018-05-13T02:01:35.908Z,12.10
2018-05-13T02:02:35.912Z,10.50
2018-05-13T02:03:35.911Z,12.70
2018-05-13T02:04:35.910Z,12.20
2018-05-13T02:05:35.913Z,11.40
2018-05-13T02:06:35.900Z,12.00
2018-05-13T02:07:35.907Z,12.30
2018-05-13T02:08:35.897Z,11.20
2018-05-13T02:09:35.895Z,13.10
2018-05-13T02:10:35.898Z,11.40
2018-05-13T02:11:35.896Z,10.70
2018-05-13T02:12:35.891Z,10.80
2018-05-13T02:13:35.887Z,11.10
2018-05-13T02:14:35.892Z,11.00
2018-05-13T02:15:35.889Z,11.20
2018-05-13T02:16:35.888Z,12.40
2018-05-13T02:17:35.885Z,11.50
2018-05-13T02:18:35.879Z,11.70
2018-05-13T02:19:35.878Z,11.50
2018-05-13T02:20:35.880Z,12.10
2018-05-13T02:21:35.878Z,12.40
2018-05-13T02:22:35.872Z,12.00
2018-05-13T02:23:35.871Z,12.00
2018-05-13T02:24:35.869Z,11.90
2018-05-13T02:25:35.868Z,12.00
2018-05-13T02:26:35.870Z,11.00
2018-05-13T02:27:35.870Z,11.20
2018-05-13T02:28:35.866Z,11.40
2018-05-13T02:29:35.861Z,11.80
2018-05-13T02:30:35.864Z,10.80
2018-05-13T02:31:35.862Z,11.60
2018-05-13T02:32:35.860Z,11.00
2018-05-13T02:33:35.857Z,12.70
2018-05-13T02:34:35.851Z,12.10
2018-05-13T02:35:35.849Z,11.70
2018-05-13T02:36:35.849Z,12.40
2018-05-13T02:37:35.845Z,10.80
2018-05-13T02:38:35.848Z,12.30
2018-05-13T02:39:35.847Z,11.60
2018-05-13T02:40:35.846Z,12.40
2018-05-13T02:41:35.843Z,12.70
2018-05-13T02:42:35.838Z,11.40
2018-05-13T02:43:35.836Z,11.40
2018-05-13T02:44:35.838Z,11.00
2018-05-13T02:45:35.837Z,10.70
2018-05-13T02:46:35.830Z,10.60
2018-05-13T02:47:35.828Z,11.00
2018-05-13T02:48:35.829Z,12.00
2018-05-13T02:49:35.824Z,10.80
2018-05-13T02:50:35.830Z,11.00
2018-05-13T02:51:35.828Z,11.50
2018-05-13T02:52:35.824Z,11.10
2018-05-13T02:53:35.821Z,10.70
2018-05-13T02:54:35.815Z,11.70
2018-05-13T02:55:35.828Z,11.00
2018-05-13T02:56:35.812Z,11.10
2018-05-13T02:57:35.818Z,10.80
2018-05-13T02:58:35.813Z,11.10
2018-05-13T02:59:35.812Z,10.60
2018-05-13T03:00:35.806Z,11.10
2018-05-13T03:01:35.802Z,10.40
2018-05-13T03:02:35.806Z,10.60
2018-05-13T03:03:35.805Z,10.80
2018-05-13T03:04:35.802Z,10.80
2018-05-13T03:05:35.800Z,11.50
2018-05-13T03:06:35.797Z,11.40
2018-05-13T03:07:35.792Z,10.70
2018-05-13T03:08:35.790Z,10.80
2018-05-13T03:09:35.788Z,10.70
2018-05-13T03:10:35.792Z,11.30
2018-05-13T03:11:35.789Z,10.70
2018-05-13T03:12:35.794Z,10.90
2018-05-13T03:13:35.787Z,10.90
2018-05-13T03:14:35.779Z,10.80
2018-05-13T03:15:35.778Z,10.90
2018-05-13T03:16:35.782Z,10.60
2018-05-13T03:17:35.778Z,11.20
2018-05-13T03:18:35.772Z,10.30
2018-05-13T03:19:35.770Z,10.20
2018-05-13T03:20:35.767Z,11.10
2018-05-13T03:21:35.766Z,10.90
2018-05-13T03:22:35.769Z,10.30
2018-05-13T03:23:35.767Z,10.90
2018-05-13T03:24:35.766Z,10.50
2018-05-13T03:25:35.764Z,11.10
2018-05-13T03:26:35.757Z,10.90
2018-05-13T03:27:35.756Z,10.90
2018-05-13T03:28:35.754Z,11.70
2018-05-13T03:29:35.753Z,11.50
2018-05-13T03:30:35.754Z,11.50
2018-05-13T03:31:35.752Z,11.60
2018-05-13T03:32:35.746Z,11.90
2018-05-13T03:33:35.744Z,11.70
2018-05-13T03:34:35.747Z,12.10
2018-05-13T03:35:35.744Z,11.70
2018-05-13T03:36:35.743Z,12.30
2018-05-13T03:37:35.741Z,11.30
2018-05-13T03:38:35.738Z,11.80
2018-05-13T03:39:35.734Z,12.10
2018-05-13T03:40:35.731Z,10.80
2018-05-13T03:41:35.728Z,10.60
2018-05-13T03:42:35.732Z,12.70
2018-05-13T03:43:35.731Z,11.40
2018-05-13T03:44:35.727Z,11.80
2018-05-13T03:45:35.725Z,11.80
2018-05-13T03:46:35.719Z,12.40
2018-05-13T03:47:35.717Z,11.80
2018-05-13T03:48:35.720Z,11.30
2018-05-13T03:49:35.718Z,11.80
2018-05-13T03:50:35.712Z,12.10
2018-05-13T03:51:35.710Z,10.90
2018-05-13T03:52:35.711Z,10.90
2018-05-13T03:53:35.707Z,11.50
2018-05-13T03:54:35.711Z,11.60
2018-05-13T03:55:35.710Z,11.50
2018-05-13T03:56:35.709Z,11.70
2018-05-13T03:57:35.705Z,12.00
2018-05-13T03:58:35.700Z,12.10
2018-05-13T03:59:35.699Z,13.40
2018-05-13T04:00:35.697Z,13.80
2018-05-13T04:01:35.701Z,15.10
2018-05-13T04:02:35.698Z,13.40
2018-05-13T04:03:35.696Z,13.10
2018-05-13T04:04:35.691Z,13.50
2018-05-13T04:05:35.688Z,13.30
2018-05-13T04:06:35.691Z,13.20
2018-05-13T04:07:35.691Z,12.90
2018-05-13T04:08:35.688Z,13.30
2018-05-13T04:09:35.688Z,12.70
2018-05-13T04:10:35.680Z,13.10
2018-05-13T04:11:35.680Z,12.90
2018-05-13T04:12:35.678Z,13.20
2018-05-13T04:13:35.676Z,12.00
2018-05-13T04:14:35.680Z,13.40
2018-05-13T04:15:35.679Z,12.70
2018-05-13T04:16:35.677Z,12.20
2018-05-13T04:17:35.674Z,13.50
2018-05-13T04:18:35.668Z,13.60
2018-05-13T04:19:35.666Z,14.10
2018-05-13T04:20:35.670Z,13.00
2018-05-13T04:21:35.667Z,13.30
2018-05-13T04:22:35.661Z,12.70
2018-05-13T04:23:35.661Z,13.00
2018-05-13T04:24:35.662Z,12.90
2018-05-13T04:25:35.658Z,13.50
2018-05-13T04:26:35.662Z,13.00
2018-05-13T04:27:35.660Z,12.90
2018-05-13T04:28:35.657Z,12.40
2018-05-13T04:29:35.654Z,12.50
2018-05-13T04:30:35.649Z,12.30
2018-05-13T04:31:35.648Z,12.50
2018-05-13T04:32:35.647Z,11.90
2018-05-13T04:33:35.644Z,12.90
2018-05-13T04:34:35.651Z,12.00
2018-05-13T04:35:35.650Z,13.70
2018-05-13T04:36:35.640Z,12.20
2018-05-13T04:37:35.641Z,13.00
2018-05-13T04:38:35.641Z,13.40
2018-05-13T04:39:35.663Z,13.90
2018-05-13T04:40:35.638Z,13.90
2018-05-13T04:41:35.635Z,14.90
2018-05-13T04:42:35.630Z,16.70
2018-05-13T04:43:35.628Z,16.10
2018-05-13T04:44:35.627Z,15.10
2018-05-13T04:45:35.625Z,16.70
2018-05-13T04:46:35.632Z,17.10
2018-05-13T04:47:35.626Z,16.10
2018-05-13T04:48:35.625Z,15.10
2018-05-13T04:49:35.622Z,15.60
2018-05-13T04:50:35.614Z,14.80
2018-05-13T04:51:35.613Z,16.70
2018-05-13T04:52:35.616Z,16.30
2018-05-13T04:53:35.612Z,16.10
2018-05-13T04:54:35.605Z,16.60
2018-05-13T04:55:35.603Z,16.20
2018-05-13T04:56:35.601Z,13.70
2018-05-13T04:57:35.598Z,15.20
2018-05-13T04:58:35.600Z,15.30
2018-05-13T04:59:35.598Z,16.50
2018-05-13T05:00:35.597Z,15.50
2018-05-13T05:01:35.593Z,14.60
2018-05-13T05:02:35.587Z,14.90
2018-05-13T05:03:35.584Z,15.20
2018-05-13T05:04:35.582Z,16.80
2018-05-13T05:05:35.580Z,16.20
2018-05-13T05:06:35.585Z,15.40
2018-05-13T05:07:35.580Z,15.70
2018-05-13T05:08:35.574Z,16.40
2018-05-13T05:09:35.570Z,15.70
2018-05-13T05:10:35.574Z,15.20
2018-05-13T05:11:35.571Z,13.90
2018-05-13T05:12:35.569Z,14.10
2018-05-13T05:13:35.567Z,14.30
2018-05-13T05:14:35.559Z,15.10
2018-05-13T05:15:35.561Z,15.00
2018-05-13T05:16:35.556Z,13.70
2018-05-13T05:17:35.553Z,12.60
2018-05-13T05:18:35.555Z,12.90
2018-05-13T05:19:35.553Z,12.60
2018-05-13T05:20:35.552Z,13.40
2018-05-13T05:21:35.549Z,15.00
2018-05-13T05:22:35.547Z,16.30
2018-05-13T05:23:35.542Z,15.30
2018-05-13T05:24:35.544Z,15.00
2018-05-13T05:25:35.541Z,15.90
2018-05-13T05:26:35.536Z,15.90
2018-05-13T05:27:35.534Z,15.50
2018-05-13T05:28:35.532Z,16.70
2018-05-13T05:29:35.531Z,16.70
2018-05-13T05:30:35.532Z,16.10
2018-05-13T05:31:35.601Z,15.70
2018-05-13T05:32:35.531Z,15.60
2018-05-13T05:33:35.536Z,16.70
2018-05-13T05:34:35.522Z,16.90
2018-05-13T05:35:35.521Z,17.50
2018-05-13T05:36:35.521Z,18.00
2018-05-13T05:37:35.517Z,16.90
2018-05-13T05:38:35.521Z,16.60
2018-05-13T05:39:35.519Z,16.80
2018-05-13T05:40:35.513Z,17.00
2018-05-13T05:41:35.512Z,17.60
2018-05-13T05:42:35.515Z,16.60
2018-05-13T05:43:35.514Z,15.40
2018-05-13T05:44:35.514Z,15.30
2018-05-13T05:45:35.513Z,15.40
2018-05-13T05:46:35.511Z,16.30
2018-05-13T05:47:35.507Z,17.00
2018-05-13T05:48:35.506Z,16.10
2018-05-13T05:49:35.504Z,16.20
2018-05-13T05:50:35.510Z,15.70
2018-05-13T05:51:35.509Z,15.70
2018-05-13T05:52:35.509Z,14.60
2018-05-13T05:53:35.507Z,14.50
2018-05-13T05:54:35.503Z,15.70
2018-05-13T05:55:35.502Z,16.60
2018-05-13T05:56:35.508Z,18.10
2018-05-13T05:57:35.506Z,16.10
2018-05-13T05:58:35.501Z,15.90
2018-05-13T05:59:35.502Z,15.70
2018-05-13T06:00:35.503Z,17.10
2018-05-13T06:01:35.503Z,17.50
2018-05-13T06:02:35.509Z,17.60
2018-05-13T06:03:35.507Z,18.30
2018-05-13T06:04:35.509Z,17.90
2018-05-13T06:05:35.507Z,17.80
2018-05-13T06:06:35.505Z,18.30
2018-05-13T06:07:35.505Z,19.00
2018-05-13T06:08:35.510Z,19.60
2018-05-13T06:09:35.507Z,18.40
2018-05-13T06:10:35.513Z,18.20
2018-05-13T06:11:35.514Z,18.80
2018-05-13T06:12:35.512Z,19.70
2018-05-13T06:13:35.513Z,19.10
2018-05-13T06:14:35.520Z,18.40
2018-05-13T06:15:35.527Z,18.50
2018-05-13T06:16:35.526Z,19.20
2018-05-13T06:17:35.527Z,18.60
2018-05-13T06:18:35.525Z,18.40
2018-05-13T06:19:35.531Z,18.50
2018-05-13T06:20:35.531Z,19.80
2018-05-13T06:21:35.531Z,20.20
2018-05-13T06:22:35.537Z,21.50
2018-05-13T06:23:35.539Z,22.60
2018-05-13T06:24:35.541Z,22.80
2018-05-13T06:25:35.543Z,22.90
2018-05-13T06:26:35.541Z,23.10
2018-05-13T06:27:35.544Z,22.20
2018-05-13T06:28:35.551Z,22.10
2018-05-13T06:29:35.553Z,22.30
2018-05-13T06:30:35.552Z,21.30
2018-05-13T06:31:35.559Z,21.80
2018-05-13T06:32:35.560Z,22.30
2018-05-13T06:33:35.561Z,23.30
2018-05-13T06:34:35.570Z,22.50
2018-05-13T06:35:35.573Z,22.60
2018-05-13T06:36:35.576Z,21.70
2018-05-13T06:37:35.578Z,21.50
2018-05-13T06:38:35.661Z,21.30
2018-05-13T06:39:35.633Z,22.10
2018-05-13T06:40:35.586Z,20.60
2018-05-13T06:41:35.588Z,21.80
2018-05-13T06:42:35.596Z,22.30
2018-05-13T06:43:35.601Z,21.30
2018-05-13T06:44:35.600Z,21.90
2018-05-13T06:45:35.605Z,21.00
2018-05-13T06:46:35.612Z,21.00
2018-05-13T06:47:35.618Z,20.70
2018-05-13T06:48:35.625Z,20.20
2018-05-13T06:49:35.626Z,19.80
2018-05-13T06:50:35.628Z,20.00
2018-05-13T06:51:35.634Z,18.90
2018-05-13T06:52:35.639Z,19.50
2018-05-13T06:53:35.642Z,18.90
2018-05-13T06:54:35.654Z,19.50
2018-05-13T06:55:35.664Z,20.00
2018-05-13T06:56:35.663Z,20.90
2018-05-13T06:57:35.670Z,20.40
2018-05-13T06:58:35.674Z,21.20
2018-05-13T06:59:35.676Z,20.90
2018-05-13T07:00:35.685Z,20.80
2018-05-13T07:01:35.690Z,20.60
2018-05-13T07:02:35.771Z,20.50
2018-05-13T07:03:35.697Z,20.80
2018-05-13T07:04:35.703Z,18.90
2018-05-13T07:05:35.709Z,19.20
2018-05-13T07:06:35.720Z,17.90
2018-05-13T07:07:35.726Z,19.60
2018-05-13T07:08:35.732Z,17.40
2018-05-13T07:09:35.736Z,17.50
2018-05-13T07:10:35.738Z,16.80
2018-05-13T07:11:35.745Z,16.90
2018-05-13T07:12:35.754Z,15.80
2018-05-13T07:13:35.758Z,16.60
2018-05-13T07:14:35.770Z,15.50
2018-05-13T07:15:35.779Z,14.80
2018-05-13T07:16:35.784Z,16.30
2018-05-13T07:17:35.789Z,17.10
2018-05-13T07:18:35.800Z,16.00
2018-05-13T07:19:35.806Z,16.00
2018-05-13T07:20:35.818Z,18.40
2018-05-13T07:21:35.820Z,19.70
2018-05-13T07:22:35.822Z,18.20
2018-05-13T07:23:35.830Z,19.50
2018-05-13T07:24:35.837Z,20.10
2018-05-13T07:25:35.844Z,20.50
2018-05-13T07:26:35.856Z,20.90
2018-05-13T07:27:35.862Z,21.60
2018-05-13T07:28:35.868Z,20.70
2018-05-13T07:29:35.873Z,21.70
2018-05-13T07:30:35.981Z,22.40
2018-05-13T07:31:35.882Z,21.70
2018-05-13T07:32:35.953Z,23.70
2018-05-13T07:33:35.898Z,23.10
2018-05-13T07:34:35.900Z,24.40
2018-05-13T07:35:35.906Z,24.30
2018-05-13T07:36:35.914Z,24.40
2018-05-13T07:37:35.918Z,23.90
2018-05-13T07:38:35.928Z,24.80
2018-05-13T07:39:35.934Z,24.80
2018-05-13T07:40:35.939Z,23.80
2018-05-13T07:41:35.943Z,23.60
2018-05-13T07:42:35.945Z,23.70
2018-05-13T07:43:35.950Z,23.70
2018-05-13T07:44:36.032Z,22.80
2018-05-13T07:45:35.975Z,22.60
2018-05-13T07:46:35.972Z,22.10
2018-05-13T07:47:35.980Z,21.70
2018-05-13T07:48:35.980Z,22.20
2018-05-13T07:49:35.983Z,21.50
2018-05-13T07:50:35.994Z,20.70
2018-05-13T07:51:36.000Z,19.20
2018-05-13T07:52:36.005Z,18.80
2018-05-13T07:53:36.012Z,19.40
2018-05-13T07:54:36.016Z,19.40
2018-05-13T07:55:36.019Z,18.80
2018-05-13T07:56:36.025Z,18.40
2018-05-13T07:57:36.032Z,20.60
2018-05-13T07:58:36.041Z,21.60
2018-05-13T07:59:36.048Z,22.30
2018-05-13T08:00:36.055Z,21.20
2018-05-13T08:01:36.061Z,21.30
2018-05-13T08:02:36.063Z,22.00
2018-05-13T08:03:36.068Z,22.80
2018-05-13T08:04:36.080Z,22.20
2018-05-13T08:05:36.086Z,23.00
2018-05-13T08:06:36.087Z,22.80
2018-05-13T08:07:36.093Z,22.60
2018-05-13T08:08:36.099Z,23.20
2018-05-13T08:09:36.105Z,23.60
2018-05-13T08:10:36.115Z,23.50
2018-05-13T08:11:36.122Z,24.40
2018-05-13T08:12:36.130Z,25.30
2018-05-13T08:13:36.132Z,26.40
2018-05-13T08:14:36.133Z,27.30
2018-05-13T08:15:36.140Z,26.50
2018-05-13T08:16:36.145Z,27.90
2018-05-13T08:17:36.149Z,28.20
2018-05-13T08:18:36.160Z,28.10
2018-05-13T08:19:36.163Z,29.30
2018-05-13T08:20:36.164Z,30.20
2018-05-13T08:21:36.169Z,30.50
2018-05-13T08:22:36.179Z,31.10
2018-05-13T08:23:36.182Z,30.00
2018-05-13T08:24:36.187Z,30.30
2018-05-13T08:25:36.244Z,30.70
2018-05-13T08:26:36.190Z,31.20
2018-05-13T08:27:36.195Z,31.50
2018-05-13T08:28:36.199Z,32.40
2018-05-13T08:29:36.205Z,31.50
2018-05-13T08:30:36.210Z,32.40
2018-05-13T08:31:36.214Z,32.70
2018-05-13T08:32:36.218Z,33.40
2018-05-13T08:33:36.221Z,33.60
2018-05-13T08:34:36.221Z,34.00
2018-05-13T08:35:36.224Z,34.30
2018-05-13T08:36:36.233Z,36.90
2018-05-13T08:37:36.235Z,35.10
2018-05-13T08:38:36.235Z,36.50
2018-05-13T08:39:36.236Z,36.40
2018-05-13T08:40:36.242Z,36.70
2018-05-13T08:41:36.244Z,38.30
2018-05-13T08:42:36.249Z,37.70
2018-05-13T08:43:36.253Z,38.10
2018-05-13T08:44:36.253Z,36.20
2018-05-13T08:45:36.257Z,36.10
2018-05-13T08:46:36.253Z,37.00
2018-05-13T08:47:36.257Z,38.50
2018-05-13T08:48:36.407Z,38.40
2018-05-13T08:49:36.259Z,39.30
2018-05-13T08:50:36.265Z,40.30
2018-05-13T08:51:36.269Z,39.70
2018-05-13T08:52:36.272Z,43.40
2018-05-13T08:53:36.268Z,41.60
2018-05-13T08:54:36.273Z,42.30
2018-05-13T08:55:36.277Z,41.60
2018-05-13T08:56:36.279Z,42.40
2018-05-13T08:57:36.279Z,41.90
2018-05-13T08:58:36.276Z,42.90
2018-05-13T08:59:36.298Z,42.00
2018-05-13T09:00:36.280Z,43.90
2018-05-13T09:01:36.280Z,43.10
2018-05-13T09:02:36.300Z,43.40
2018-05-13T09:03:36.288Z,44.10
2018-05-13T09:04:36.291Z,40.70
2018-05-13T09:05:36.289Z,41.90
2018-05-13T09:06:36.286Z,43.00
2018-05-13T09:07:36.296Z,43.70
2018-05-13T09:08:36.293Z,43.80
2018-05-13T09:09:36.294Z,44.80
2018-05-13T09:10:36.291Z,44.30
2018-05-13T09:11:36.293Z,44.80
2018-05-13T09:12:36.296Z,43.90
2018-05-13T09:13:36.299Z,45.40
2018-05-13T09:14:36.301Z,44.20
2018-05-13T09:15:36.307Z,44.40
2018-05-13T09:16:36.305Z,45.40
2018-05-13T09:17:36.310Z,47.30
2018-05-13T09:18:36.304Z,45.70
2018-05-13T09:19:36.306Z,47.60
2018-05-13T09:20:36.317Z,47.50
2018-05-13T09:21:36.306Z,46.70
2018-05-13T09:22:36.312Z,48.60
2018-05-13T09:23:36.316Z,48.40
2018-05-13T09:24:36.311Z,49.10
2018-05-13T09:25:36.312Z,48.80
2018-05-13T09:26:36.353Z,48.40
2018-05-13T09:27:36.321Z,46.70
2018-05-13T09:28:36.323Z,47.60
2018-05-13T09:29:36.338Z,46.30
2018-05-13T09:30:36.321Z,48.00
2018-05-13T09:31:36.322Z,47.90
2018-05-13T09:32:36.326Z,49.80
2018-05-13T09:33:36.324Z,51.10
2018-05-13T09:34:36.331Z,50.90
2018-05-13T09:35:36.334Z,51.90
2018-05-13T09:36:36.334Z,53.30
2018-05-13T09:37:36.336Z,53.00
2018-05-13T09:38:36.333Z,53.00
2018-05-13T09:39:36.338Z,54.30
2018-05-13T09:40:36.342Z,55.80
2018-05-13T09:41:36.341Z,55.00
2018-05-13T09:42:36.339Z,53.60
2018-05-13T09:43:36.342Z,56.50
2018-05-13T09:44:36.343Z,56.80
2018-05-13T09:45:36.344Z,56.90
2018-05-13T09:46:36.349Z,57.40
2018-05-13T09:47:36.352Z,55.80
2018-05-13T09:48:36.353Z,58.50
2018-05-13T09:49:36.357Z,59.00
2018-05-13T09:50:36.352Z,61.40
2018-05-13T09:51:36.351Z,61.10
2018-05-13T09:52:36.352Z,58.90
2018-05-13T09:53:36.352Z,59.20
2018-05-13T09:54:36.359Z,60.90
2018-05-13T09:55:36.364Z,61.50
2018-05-13T09:56:36.361Z,60.60
2018-05-13T09:57:36.365Z,61.90
2018-05-13T09:58:36.363Z,60.60
2018-05-13T09:59:36.374Z,63.30
2018-05-13T10:00:36.363Z,63.50
2018-05-13T10:01:36.369Z,64.00
2018-05-13T10:02:36.360Z,60.60
2018-05-13T10:03:36.361Z,61.20
2018-05-13T10:04:36.362Z,61.30
2018-05-13T10:05:36.364Z,64.10
2018-05-13T10:06:36.368Z,63.40
2018-05-13T10:07:36.370Z,60.00
2018-05-13T10:08:36.373Z,68.50
2018-05-13T10:09:36.454Z,66.30
2018-05-13T10:10:36.365Z,67.30
2018-05-13T10:11:36.364Z,70.30
2018-05-13T10:12:36.371Z,69.00
2018-05-13T10:13:36.370Z,71.20
2018-05-13T10:14:36.368Z,70.20
2018-05-13T10:15:36.366Z,69.70
2018-05-13T10:16:36.366Z,71.00
2018-05-13T10:17:36.365Z,73.80
2018-05-13T10:18:36.373Z,72.40
2018-05-13T10:19:36.465Z,75.20
2018-05-13T10:20:36.370Z,76.50
2018-05-13T10:21:36.371Z,79.00
2018-05-13T10:22:36.366Z,75.30
2018-05-13T10:23:36.366Z,81.70
2018-05-13T10:24:36.366Z,77.20
2018-05-13T10:25:36.366Z,80.00
2018-05-13T10:26:36.369Z,74.50
2018-05-13T10:27:36.372Z,78.60
2018-05-13T10:28:36.365Z,79.20
2018-05-13T10:29:36.364Z,76.30
2018-05-13T10:30:36.369Z,76.40
2018-05-13T10:31:36.419Z,75.40
2018-05-13T10:32:36.368Z,76.30
2018-05-13T10:33:36.367Z,78.40
2018-05-13T10:34:36.363Z,77.50
2018-05-13T10:35:36.362Z,76.40
2018-05-13T10:36:36.362Z,76.70
2018-05-13T10:37:36.360Z,78.30
2018-05-13T10:38:36.365Z,77.50
2018-05-13T10:39:36.364Z,81.80
2018-05-13T10:40:36.365Z,73.70
2018-05-13T10:41:36.362Z,77.30
2018-05-13T10:42:36.358Z,78.30
2018-05-13T10:43:36.358Z,75.20
2018-05-13T10:44:36.361Z,71.60
2018-05-13T10:45:36.361Z,69.20
2018-05-13T10:46:36.356Z,68.90
2018-05-13T10:47:36.355Z,73.30
2018-05-13T10:48:36.355Z,72.10
2018-05-13T10:49:36.358Z,67.90
2018-05-13T10:50:36.359Z,71.30
2018-05-13T10:51:36.357Z,72.20
2018-05-13T10:52:36.357Z,68.40
2018-05-13T10:53:36.357Z,69.50
2018-05-13T10:54:36.349Z,68.30
2018-05-13T10:55:36.348Z,68.40
2018-05-13T10:56:36.348Z,65.00
2018-05-13T10:57:36.349Z,64.70
2018-05-13T10:58:36.350Z,65.90
2018-05-13T10:59:36.351Z,63.60
2018-05-13T11:00:36.345Z,64.70
2018-05-13T11:01:36.343Z,63.70
2018-05-13T11:02:36.348Z,62.80
2018-05-13T11:03:36.350Z,62.90
2018-05-13T11:04:36.348Z,63.30
2018-05-13T11:05:36.345Z,61.40
2018-05-13T11:06:36.342Z,60.10
2018-05-13T11:07:36.339Z,60.90
2018-05-13T11:08:36.339Z,60.70
2018-05-13T11:09:36.339Z,61.80
2018-05-13T11:10:36.342Z,61.90
2018-05-13T11:11:36.343Z,60.00
2018-05-13T11:12:36.340Z,60.90
2018-05-13T11:13:36.339Z,62.80
2018-05-13T11:14:36.334Z,60.00
2018-05-13T11:15:36.334Z,61.90
2018-05-13T11:16:36.339Z,62.50
2018-05-13T11:17:36.336Z,62.00
2018-05-13T11:18:36.338Z,62.20
2018-05-13T11:19:36.331Z,59.40
2018-05-13T11:20:36.408Z,58.20
2018-05-13T11:21:36.330Z,60.30
2018-05-13T11:22:36.335Z,59.60
2018-05-13T11:23:36.335Z,58.00
2018-05-13T11:24:36.335Z,56.30
2018-05-13T11:25:36.333Z,57.20
2018-05-13T11:26:36.327Z,58.00
2018-05-13T11:27:36.327Z,59.30
2018-05-13T11:28:36.327Z,57.20
2018-05-13T11:29:36.324Z,59.60
2018-05-13T11:30:36.331Z,58.70
2018-05-13T11:31:36.329Z,59.80
2018-05-13T11:32:36.325Z,60.70
2018-05-13T11:33:36.323Z,57.60
2018-05-13T11:34:36.328Z,55.50
2018-05-13T11:35:36.328Z,58.20
2018-05-13T11:36:36.329Z,55.90
2018-05-13T11:37:36.326Z,56.50
2018-05-13T11:38:36.323Z,56.70
2018-05-13T11:39:36.322Z,56.10
2018-05-13T11:40:36.322Z,54.60
2018-05-13T11:41:36.321Z,54.90
2018-05-13T11:42:36.325Z,55.20
2018-05-13T11:43:36.326Z,54.50
2018-05-13T11:44:36.325Z,52.80
2018-05-13T11:45:36.323Z,51.60
2018-05-13T11:46:36.334Z,53.10
2018-05-13T11:47:36.319Z,53.60
2018-05-13T11:48:36.323Z,51.80
2018-05-13T11:49:36.321Z,51.30
2018-05-13T11:50:36.317Z,50.00
2018-05-13T11:51:36.317Z,48.80
2018-05-13T11:52:36.317Z,50.20
2018-05-13T11:53:36.316Z,51.30
2018-05-13T11:54:36.322Z,48.40
2018-05-13T11:55:36.321Z,50.40
2018-05-13T11:56:36.319Z,52.30
2018-05-13T11:57:36.318Z,49.40
2018-05-13T11:58:36.313Z,52.20
2018-05-13T11:59:36.314Z,48.50
2018-05-13T12:00:36.313Z,53.30
2018-05-13T12:01:36.312Z,50.50
2018-05-13T12:02:36.316Z,51.20
2018-05-13T12:03:36.317Z,52.30
2018-05-13T12:04:36.311Z,50.00
2018-05-13T12:05:36.310Z,49.70
2018-05-13T12:06:36.318Z,50.60
2018-05-13T12:07:36.314Z,48.40
2018-05-13T12:08:36.313Z,51.90
2018-05-13T12:09:36.312Z,50.80
2018-05-13T12:10:36.307Z,49.20
2018-05-13T12:11:36.357Z,49.20
2018-05-13T12:12:36.307Z,47.40
2018-05-13T12:13:36.305Z,49.70
2018-05-13T12:14:36.309Z,49.60
2018-05-13T12:15:36.311Z,46.90
2018-05-13T12:16:36.308Z,46.20
2018-05-13T12:17:36.308Z,46.40
2018-05-13T12:18:36.302Z,47.40
2018-05-13T12:19:36.302Z,47.60
2018-05-13T12:20:36.308Z,45.80
2018-05-13T12:21:36.305Z,44.80
2018-05-13T12:22:36.301Z,47.90
2018-05-13T12:23:36.300Z,47.00
2018-05-13T12:24:36.303Z,47.90
2018-05-13T12:25:36.296Z,46.00
2018-05-13T12:26:36.306Z,43.60
2018-05-13T12:27:36.300Z,47.20
2018-05-13T12:28:36.298Z,45.10
2018-05-13T12:29:36.297Z,45.10
2018-05-13T12:30:36.293Z,45.80
2018-05-13T12:31:36.293Z,46.40
2018-05-13T12:32:36.292Z,47.30
2018-05-13T12:33:36.291Z,43.40
2018-05-13T12:34:36.296Z,43.90
2018-05-13T12:35:36.295Z,44.10
2018-05-13T12:36:36.290Z,42.70
2018-05-13T12:37:36.289Z,41.00
2018-05-13T12:38:36.296Z,41.50
2018-05-13T12:39:36.293Z,40.90
2018-05-13T12:40:36.291Z,40.60
2018-05-13T12:41:36.289Z,38.70
2018-05-13T12:42:36.284Z,42.20
2018-05-13T12:43:36.285Z,43.20
2018-05-13T12:44:36.285Z,43.10
2018-05-13T12:45:36.284Z,42.90
2018-05-13T12:46:36.287Z,41.90
2018-05-13T12:47:36.286Z,42.40
2018-05-13T12:48:36.288Z,41.60
2018-05-13T12:49:36.286Z,42.50
2018-05-13T12:50:36.281Z,42.50
2018-05-13T12:51:36.280Z,41.20
2018-05-13T12:52:36.285Z,43.20